Time;durP1;ratioP1;P1;durP2;ratioP2;P2;SDS_P1;SDS_P2;PMS_P1;PMS_P2;Temp;Humidity;BMP_temperature;BMP_pressure;BME280_temperature;BME280_humidity;BME280_pressure;Samples;Min_cycle;Max_cycle;Signal;HPM_P1;HPM_P2
2023/04/01 00:00:47;;;;;;;0.00;0.00;;;;;;;;;;5030730;28;20397;-86
2023/04/01 00:03:13;;;;;;;0.00;0.00;;;;;;;;;;5030577;28;20121;-87
2023/04/01 00:05:39;;;;;;;0.00;0.00;;;;;;;;;;5030865;28;20200;-86
2023/04/01 00:08:05;;;;;;;0.00;0.00;;;;;;;;;;5030844;28;20141;-86
2023/04/01 00:10:31;;;;;;;0.00;0.00;;;;;;;;;;5030541;28;20513;-87
2023/04/01 00:12:57;;;;;;;0.00;0.00;;;;;;;;;;5030629;28;20037;-86
2023/04/01 00:15:23;;;;;;;0.00;0.00;;;;;;;;;;5030692;28;20099;-86
2023/04/01 00:17:49;;;;;;;0.00;0.00;;;;;;;;;;5033225;28;20044;-86
2023/04/01 00:20:16;;;;;;;0.00;0.00;;;;;;;;;;5034558;28;20132;-86
2023/04/01 00:22:42;;;;;;;0.00;0.00;;;;;;;;;;5034439;28;20468;-86
2023/04/01 00:25:08;;;;;;;0.00;0.00;;;;;;;;;;5017895;28;20480;-86
2023/04/01 00:27:34;;;;;;;0.00;0.00;;;;;;;;;;5034180;28;20124;-86
2023/04/01 00:30:00;;;;;;;0.00;0.00;;;;;;;;;;5034391;28;20077;-86
2023/04/01 00:32:27;;;;;;;0.00;0.00;;;;;;;;;;5034385;28;20186;-87
2023/04/01 00:34:53;;;;;;;0.00;0.00;;;;;;;;;;5034509;28;20045;-86
2023/04/01 00:37:20;;;;;;;0.00;0.00;;;;;;;;;;5017800;28;20096;-86
2023/04/01 00:39:47;;;;;;;0.00;0.00;;;;;;;;;;5034477;28;20046;-86
2023/04/01 00:42:13;;;;;;;0.00;0.00;;;;;;;;;;5034146;28;20041;-86
2023/04/01 00:44:40;;;;;;;0.00;0.00;;;;;;;;;;5034017;28;20120;-86
2023/04/01 00:47:06;;;;;;;0.00;0.00;;;;;;;;;;5017857;28;20377;-86
2023/04/01 00:49:34;;;;;;;0.20;0.00;;;;;;;;;;5033916;28;20048;-86
2023/04/01 00:52:01;;;;;;;0.10;0.00;;;;;;;;;;5017477;28;20095;-86
2023/04/01 00:54:29;;;;;;;0.00;0.00;;;;;;;;;;5033819;28;20037;-86
2023/04/01 00:56:58;;;;;;;0.00;0.00;;;;;;;;;;5034031;28;20041;-86
2023/04/01 00:59:27;;;;;;;0.00;0.00;;;;;;;;;;5033775;28;20041;-87
2023/04/01 01:01:53;;;;;;;0.00;0.00;;;;;;;;;;5017347;28;20066;-86
2023/04/01 01:04:21;;;;;;;0.00;0.00;;;;;;;;;;5033811;28;20041;-86
2023/04/01 01:06:57;;;;;;;0.20;0.10;;;;;;;;;;5034193;28;20037;-86
2023/04/01 01:09:32;;;;;;;0.00;0.00;;;;;;;;;;5033657;28;20045;-86
2023/04/01 01:12:04;;;;;;;0.00;0.00;;;;;;;;;;5033757;28;20052;-86
2023/04/01 01:14:51;;;;;;;0.00;0.00;;;;;;;;;;5033767;28;20319;-86
2023/04/01 01:17:20;;;;;;;0.00;0.00;;;;;;;;;;5033814;28;20425;-86
2023/04/01 01:19:52;;;;;;;0.00;0.00;;;;;;;;;;5033792;28;20249;-86
2023/04/01 01:22:33;;;;;;;0.00;0.00;;;;;;;;;;5033891;28;20049;-86
2023/04/01 01:25:35;;;;;;;0.00;0.00;;;;;;;;;;5017411;28;20079;-86
2023/04/01 01:28:20;;;;;;;0.00;0.00;;;;;;;;;;4977181;28;20078;-86
2023/04/01 01:30:58;;;;;;;0.00;0.00;;;;;;;;;;5029096;28;20052;-86
2023/04/01 01:33:39;;;;;;;0.00;0.00;;;;;;;;;;5033020;28;20116;-86
2023/04/01 01:36:07;;;;;;;0.00;0.00;;;;;;;;;;5033349;28;20085;-87
2023/04/01 01:38:34;;;;;;;0.00;0.00;;;;;;;;;;5016678;28;20111;-87
2023/04/01 01:41:01;;;;;;;0.00;0.00;;;;;;;;;;5033284;28;20140;-86
2023/04/01 01:43:35;;;;;;;0.00;0.00;;;;;;;;;;5032903;28;20067;-86
2023/04/01 01:46:05;;;;;;;0.00;0.00;;;;;;;;;;5033125;28;20046;-86
2023/04/01 01:48:32;;;;;;;0.00;0.00;;;;;;;;;;5032826;28;20355;-86
2023/04/01 01:50:58;;;;;;;0.00;0.00;;;;;;;;;;5018015;28;20041;-86
2023/04/01 01:53:24;;;;;;;0.00;0.00;;;;;;;;;;5033905;28;20041;-85
2023/04/01 01:55:50;;;;;;;0.00;0.00;;;;;;;;;;5016634;28;20064;-86
2023/04/01 01:58:29;;;;;;;0.00;0.00;;;;;;;;;;5016516;28;20048;-86
2023/04/01 02:01:00;;;;;;;0.00;0.00;;;;;;;;;;5016104;28;20054;-86
2023/04/01 02:03:29;;;;;;;0.10;0.00;;;;;;;;;;5032587;28;20124;-86
2023/04/01 02:05:56;;;;;;;0.00;0.00;;;;;;;;;;5032690;28;20045;-86
2023/04/01 02:08:28;;;;;;;0.00;0.00;;;;;;;;;;5032728;28;20041;-86
2023/04/01 02:11:06;;;;;;;0.00;0.00;;;;;;;;;;5032591;28;20431;-86
2023/04/01 02:13:38;;;;;;;0.00;0.00;;;;;;;;;;5016031;28;20072;-87
2023/04/01 02:16:07;;;;;;;0.00;0.00;;;;;;;;;;5032528;28;20056;-86
2023/04/01 02:18:35;;;;;;;0.00;0.00;;;;;;;;;;5032808;28;20077;-86
2023/04/01 02:21:02;;;;;;;0.00;0.00;;;;;;;;;;5016034;28;20041;-86
2023/04/01 02:23:29;;;;;;;0.20;0.00;;;;;;;;;;5032275;28;20042;-86
2023/04/01 02:25:55;;;;;;;0.00;0.00;;;;;;;;;;5015793;28;20063;-86
2023/04/01 02:28:21;;;;;;;0.00;0.00;;;;;;;;;;5032271;28;20041;-86
2023/04/01 02:30:48;;;;;;;0.00;0.00;;;;;;;;;;5032038;28;20044;-86
2023/04/01 02:33:14;;;;;;;0.00;0.00;;;;;;;;;;5032173;28;20044;-86
2023/04/01 02:35:40;;;;;;;0.00;0.00;;;;;;;;;;5032223;28;20146;-86
2023/04/01 02:38:07;;;;;;;0.00;0.00;;;;;;;;;;5015746;28;20095;-86
2023/04/01 02:40:43;;;;;;;0.00;0.00;;;;;;;;;;5031486;28;20060;-86
2023/04/01 02:43:09;;;;;;;0.00;0.00;;;;;;;;;;5032531;28;20030;-86
2023/04/01 02:45:35;;;;;;;0.00;0.00;;;;;;;;;;5015727;28;20120;-86
2023/04/01 02:48:01;;;;;;;0.00;0.00;;;;;;;;;;5032292;28;20124;-85
2023/04/01 02:50:27;;;;;;;0.00;0.00;;;;;;;;;;5015166;28;20068;-87
2023/04/01 02:52:53;;;;;;;0.00;0.00;;;;;;;;;;5031993;28;20045;-86
2023/04/01 02:55:19;;;;;;;0.00;0.00;;;;;;;;;;5031456;28;20132;-86
2023/04/01 02:57:45;;;;;;;0.00;0.00;;;;;;;;;;5015581;28;20052;-86
2023/04/01 03:00:11;;;;;;;0.00;0.00;;;;;;;;;;5031448;28;20049;-86
2023/04/01 03:02:39;;;;;;;0.00;0.00;;;;;;;;;;5015333;28;20060;-86
2023/04/01 03:05:05;;;;;;;0.00;0.00;;;;;;;;;;5031457;28;20177;-86
2023/04/01 03:07:32;;;;;;;0.00;0.00;;;;;;;;;;5031604;28;20037;-87
2023/04/01 03:09:57;;;;;;;0.00;0.00;;;;;;;;;;5031580;28;20068;-86
2023/04/01 03:12:24;;;;;;;0.70;0.10;;;;;;;;;;5031357;28;20449;-87
2023/04/01 03:14:50;;;;;;;0.00;0.00;;;;;;;;;;5031567;28;20489;-86
2023/04/01 03:17:16;;;;;;;0.20;0.10;;;;;;;;;;5031552;28;20079;-86
2023/04/01 03:19:42;;;;;;;0.00;0.00;;;;;;;;;;5031422;28;20072;-85
2023/04/01 03:22:09;;;;;;;0.00;0.00;;;;;;;;;;5031692;28;20049;-86
2023/04/01 03:24:35;;;;;;;0.00;0.00;;;;;;;;;;5014998;28;20592;-86
2023/04/01 03:27:01;;;;;;;0.00;0.00;;;;;;;;;;5031336;28;20501;-86
2023/04/01 03:29:27;;;;;;;0.00;0.00;;;;;;;;;;5014655;28;20041;-86
2023/04/01 03:31:53;;;;;;;0.00;0.00;;;;;;;;;;5031371;28;20050;-86
2023/04/01 03:34:19;;;;;;;0.00;0.00;;;;;;;;;;5031040;28;20045;-86
2023/04/01 03:36:45;;;;;;;0.00;0.00;;;;;;;;;;5014911;28;20037;-86
2023/04/01 03:39:12;;;;;;;0.00;0.00;;;;;;;;;;5014553;28;20041;-86
2023/04/01 03:41:38;;;;;;;0.00;0.00;;;;;;;;;;5014501;28;20037;-86
2023/04/01 03:44:04;;;;;;;0.20;0.10;;;;;;;;;;5014456;28;20484;-86
2023/04/01 03:46:30;;;;;;;0.00;0.00;;;;;;;;;;5030875;28;20131;-86
2023/04/01 03:48:56;;;;;;;0.00;0.00;;;;;;;;;;5031066;28;20404;-86
2023/04/01 03:51:22;;;;;;;0.00;0.00;;;;;;;;;;5030954;28;20041;-86
2023/04/01 03:53:49;;;;;;;0.00;0.00;;;;;;;;;;5035319;28;20041;-86
2023/04/01 03:56:15;;;;;;;0.00;0.00;;;;;;;;;;5018461;28;20125;-86
2023/04/01 03:58:41;;;;;;;0.00;0.00;;;;;;;;;;5035620;28;20073;-86
2023/04/01 04:01:14;;;;;;;0.20;0.00;;;;;;;;;;5017962;28;20139;-87
2023/04/01 04:03:40;;;;;;;0.00;0.00;;;;;;;;;;5034843;28;20056;-86
2023/04/01 04:06:06;;;;;;;0.00;0.00;;;;;;;;;;5034616;28;20404;-86
2023/04/01 04:08:32;;;;;;;0.00;0.00;;;;;;;;;;5034649;28;20115;-86
2023/04/01 04:10:58;;;;;;;0.00;0.00;;;;;;;;;;5018208;28;20041;-86
2023/04/01 04:13:24;;;;;;;0.00;0.00;;;;;;;;;;5018406;28;20037;-87
2023/04/01 04:15:50;;;;;;;0.25;0.10;;;;;;;;;;5034537;28;20128;-86
2023/04/01 04:18:16;;;;;;;0.00;0.00;;;;;;;;;;5034904;28;20068;-86
2023/04/01 04:20:48;;;;;;;0.00;0.00;;;;;;;;;;5034933;28;20044;-86
2023/04/01 04:23:14;;;;;;;0.00;0.00;;;;;;;;;;5018198;28;20041;-86
2023/04/01 04:25:40;;;;;;;0.10;0.10;;;;;;;;;;5034609;28;20042;-86
2023/04/01 04:28:06;;;;;;;0.10;0.00;;;;;;;;;;5018520;28;20046;-86
2023/04/01 04:30:32;;;;;;;0.00;0.00;;;;;;;;;;5034801;28;20077;-86
2023/04/01 04:32:58;;;;;;;0.22;0.10;;;;;;;;;;5034684;28;20049;-86
2023/04/01 04:35:24;;;;;;;0.00;0.00;;;;;;;;;;5034347;28;20037;-86
2023/04/01 04:37:49;;;;;;;0.00;0.00;;;;;;;;;;5034514;28;20116;-86
2023/04/01 04:40:16;;;;;;;0.00;0.00;;;;;;;;;;5034307;28;20043;-86
2023/04/01 04:42:41;;;;;;;0.00;0.00;;;;;;;;;;5017952;28;20083;-86
2023/04/01 04:45:08;;;;;;;0.00;0.00;;;;;;;;;;5034437;28;20045;-86
2023/04/01 04:47:34;;;;;;;0.00;0.00;;;;;;;;;;5034705;28;20048;-86
2023/04/01 04:50:00;;;;;;;0.65;0.15;;;;;;;;;;5034634;28;20497;-87
2023/04/01 04:52:26;;;;;;;0.00;0.00;;;;;;;;;;5034070;28;20049;-86
2023/04/01 04:54:52;;;;;;;0.00;0.00;;;;;;;;;;5034395;28;20037;-86
2023/04/01 04:57:18;;;;;;;0.00;0.00;;;;;;;;;;5034443;28;20124;-86
2023/04/01 04:59:43;;;;;;;0.13;0.00;;;;;;;;;;5034591;28;20056;-87
2023/04/01 05:02:10;;;;;;;0.00;0.00;;;;;;;;;;5017186;28;20513;-86
2023/04/01 05:04:36;;;;;;;0.00;0.00;;;;;;;;;;5016381;28;20444;-87
2023/04/01 05:07:02;;;;;;;0.00;0.00;;;;;;;;;;5000970;28;20429;-86
2023/04/01 05:09:28;;;;;;;0.00;0.00;;;;;;;;;;5017448;28;20147;-86
2023/04/01 05:11:55;;;;;;;0.25;0.10;;;;;;;;;;5017321;28;20136;-86
2023/04/01 05:14:22;;;;;;;0.00;0.00;;;;;;;;;;5017217;28;20381;-85
2023/04/01 05:16:49;;;;;;;0.00;0.00;;;;;;;;;;5016869;28;20128;-86
2023/04/01 05:19:15;;;;;;;0.00;0.00;;;;;;;;;;5017202;28;20212;-86
2023/04/01 05:21:41;;;;;;;0.00;0.00;;;;;;;;;;5017700;28;20049;-86
2023/04/01 05:24:10;;;;;;;0.00;0.00;;;;;;;;;;5017211;28;20440;-85
2023/04/01 05:26:36;;;;;;;0.00;0.00;;;;;;;;;;5017265;28;20079;-85
2023/04/01 05:29:03;;;;;;;0.00;0.00;;;;;;;;;;5001093;28;20362;-86
2023/04/01 05:31:29;;;;;;;0.00;0.00;;;;;;;;;;5017035;28;20045;-86
2023/04/01 05:33:55;;;;;;;0.00;0.00;;;;;;;;;;5016884;28;20043;-85
2023/04/01 05:36:21;;;;;;;0.00;0.00;;;;;;;;;;5016864;28;20543;-86
2023/04/01 05:38:47;;;;;;;0.00;0.00;;;;;;;;;;5017160;28;20045;-86
2023/04/01 05:41:14;;;;;;;0.00;0.00;;;;;;;;;;5016792;28;20083;-86
2023/04/01 05:43:41;;;;;;;0.00;0.00;;;;;;;;;;5016991;28;20049;-86
2023/04/01 05:46:07;;;;;;;0.00;0.00;;;;;;;;;;5016511;28;20048;-86
2023/04/01 05:48:34;;;;;;;0.00;0.00;;;;;;;;;;5016755;28;20310;-86
2023/04/01 05:51:00;;;;;;;0.43;0.25;;;;;;;;;;5016944;28;20602;-86
2023/04/01 05:53:26;;;;;;;0.00;0.00;;;;;;;;;;5016814;28;20162;-87
2023/04/01 05:55:52;;;;;;;0.00;0.00;;;;;;;;;;5016698;28;20053;-86
2023/04/01 05:58:18;;;;;;;0.00;0.00;;;;;;;;;;5000465;28;20168;-86
2023/04/01 06:00:44;;;;;;;0.00;0.00;;;;;;;;;;5021228;28;20217;-86
2023/04/01 06:03:10;;;;;;;0.00;0.00;;;;;;;;;;5032823;28;20037;-86
2023/04/01 06:05:44;;;;;;;0.00;0.00;;;;;;;;;;5032899;28;20038;-86
2023/04/01 06:08:12;;;;;;;0.00;0.00;;;;;;;;;;5032665;28;20103;-85
2023/04/01 06:10:47;;;;;;;0.00;0.00;;;;;;;;;;5032815;28;20095;-86
2023/04/01 06:13:19;;;;;;;0.00;0.00;;;;;;;;;;5032313;28;20045;-86
2023/04/01 06:16:01;;;;;;;0.00;0.00;;;;;;;;;;5032406;28;20037;-86
2023/04/01 06:18:46;;;;;;;0.00;0.00;;;;;;;;;;5016065;28;20124;-86
2023/04/01 06:21:37;;;;;;;2.33;0.17;;;;;;;;;;5032491;28;20042;-86
2023/04/01 06:24:19;;;;;;;0.00;0.00;;;;;;;;;;5032684;28;20747;-86
2023/04/01 06:27:01;;;;;;;0.00;0.00;;;;;;;;;;5032224;28;20048;-86
2023/04/01 06:29:46;;;;;;;0.60;0.17;;;;;;;;;;5032392;28;20049;-86
2023/04/01 06:32:21;;;;;;;0.00;0.00;;;;;;;;;;5031941;28;20072;-86
2023/04/01 06:34:59;;;;;;;0.10;0.03;;;;;;;;;;5032264;28;20069;-86
2023/04/01 06:37:31;;;;;;;0.00;0.00;;;;;;;;;;5015869;28;20424;-87
2023/04/01 06:40:15;;;;;;;0.00;0.00;;;;;;;;;;5032520;28;20045;-87
2023/04/01 06:42:51;;;;;;;0.00;0.00;;;;;;;;;;5031792;28;20045;-87
2023/04/01 06:45:49;;;;;;;0.00;0.00;;;;;;;;;;5015964;28;20464;-87
2023/04/01 06:48:18;;;;;;;0.00;0.00;;;;;;;;;;4999757;28;20080;-88
2023/04/01 06:50:57;;;;;;;0.10;0.10;;;;;;;;;;5015300;28;20041;-88
2023/04/01 06:53:26;;;;;;;0.00;0.00;;;;;;;;;;5032109;28;20117;-89
2023/04/01 06:56:06;;;;;;;0.00;0.00;;;;;;;;;;5032401;28;20042;-89
2023/04/01 06:58:36;;;;;;;0.00;0.00;;;;;;;;;;5015448;28;20037;-88
2023/04/01 07:01:04;;;;;;;0.00;0.00;;;;;;;;;;5015306;28;20100;-87
2023/04/01 07:03:33;;;;;;;0.00;0.00;;;;;;;;;;5014678;28;20041;-87
2023/04/01 07:06:01;;;;;;;0.00;0.00;;;;;;;;;;5015691;28;20481;-87
2023/04/01 07:08:28;;;;;;;0.00;0.00;;;;;;;;;;5015163;28;20037;-87
2023/04/01 07:10:57;;;;;;;0.10;0.10;;;;;;;;;;5031817;28;20500;-87
2023/04/01 07:13:26;;;;;;;0.00;0.00;;;;;;;;;;5031349;28;20045;-87
2023/04/01 07:16:14;;;;;;;0.00;0.00;;;;;;;;;;5015210;28;20041;-88
2023/04/01 07:18:40;;;;;;;0.00;0.00;;;;;;;;;;5014858;28;20500;-88
2023/04/01 07:21:11;;;;;;;0.00;0.00;;;;;;;;;;5031732;28;20046;-88
2023/04/01 07:23:39;;;;;;;0.30;0.05;;;;;;;;;;5014787;28;20037;-88
2023/04/01 07:26:20;;;;;;;0.00;0.00;;;;;;;;;;5014702;28;20046;-90
2023/04/01 07:28:46;;;;;;;0.00;0.00;;;;;;;;;;5012600;28;20056;-87
2023/04/01 07:31:31;;;;;;;0.00;0.00;;;;;;;;;;5031471;28;20041;-88
2023/04/01 07:34:16;;;;;;;0.00;0.00;;;;;;;;;;5031029;28;20397;-89
2023/04/01 07:37:05;;;;;;;0.35;0.00;;;;;;;;;;5015359;28;20041;-87
2023/04/01 07:39:37;;;;;;;0.00;0.00;;;;;;;;;;5031502;28;20128;-87
2023/04/01 07:42:16;;;;;;;0.00;0.00;;;;;;;;;;5031311;28;20052;-87
2023/04/01 07:44:45;;;;;;;0.50;0.20;;;;;;;;;;5014973;28;20386;-87
2023/04/01 07:47:16;;;;;;;0.22;0.10;;;;;;;;;;5031176;28;20285;-87
2023/04/01 07:49:48;;;;;;;0.00;0.00;;;;;;;;;;5014896;28;20041;-87
2023/04/01 07:52:27;;;;;;;0.00;0.00;;;;;;;;;;5014891;28;20133;-86
2023/04/01 07:54:57;;;;;;;0.00;0.00;;;;;;;;;;5031282;28;20045;-87
2023/04/01 07:57:28;;;;;;;0.20;0.10;;;;;;;;;;5030769;28;20065;-87
2023/04/01 07:59:54;;;;;;;0.43;0.28;;;;;;;;;;5029981;28;20056;-86
2023/04/01 08:02:43;;;;;;;0.00;0.00;;;;;;;;;;4995208;28;20057;-87
2023/04/01 08:05:12;;;;;;;0.20;0.17;;;;;;;;;;4983045;28;20049;-87
2023/04/01 08:07:45;;;;;;;0.00;0.00;;;;;;;;;;4995192;28;20054;-87
2023/04/01 08:10:11;;;;;;;0.00;0.00;;;;;;;;;;4995190;28;20045;-87
2023/04/01 08:12:46;;;;;;;0.00;0.00;;;;;;;;;;4978531;28;20046;-87
2023/04/01 08:15:27;;;;;;;0.00;0.00;;;;;;;;;;4995827;28;20049;-89
2023/04/01 08:18:04;;;;;;;0.00;0.00;;;;;;;;;;4994914;28;20041;-87
2023/04/01 08:20:38;;;;;;;0.00;0.00;;;;;;;;;;4995993;28;20042;-87
2023/04/01 08:23:22;;;;;;;0.03;0.03;;;;;;;;;;4994565;28;20042;-86
2023/04/01 08:25:52;;;;;;;0.03;0.00;;;;;;;;;;4994952;28;20042;-86
2023/04/01 08:28:32;;;;;;;0.00;0.00;;;;;;;;;;4994639;28;20042;-87
2023/04/01 08:31:01;;;;;;;0.52;0.03;;;;;;;;;;4994868;28;20536;-87
2023/04/01 08:33:31;;;;;;;0.00;0.00;;;;;;;;;;4994770;28;20081;-86
2023/04/01 08:36:00;;;;;;;0.43;0.10;;;;;;;;;;4994828;28;20084;-86
2023/04/01 08:38:33;;;;;;;0.63;0.08;;;;;;;;;;4996598;28;20100;-86
2023/04/01 08:41:11;;;;;;;0.00;0.00;;;;;;;;;;4998974;28;20045;-88
2023/04/01 08:43:40;;;;;;;0.00;0.00;;;;;;;;;;4998289;28;20077;-87
2023/04/01 08:46:24;;;;;;;0.00;0.00;;;;;;;;;;4998217;28;20397;-89
2023/04/01 08:49:03;;;;;;;0.00;0.00;;;;;;;;;;4997854;28;20046;-88
2023/04/01 08:51:41;;;;;;;1.35;0.30;;;;;;;;;;4998202;28;20046;-89
2023/04/01 08:54:29;;;;;;;0.00;0.00;;;;;;;;;;4997835;28;20042;-89
2023/04/01 08:57:33;;;;;;;0.00;0.00;;;;;;;;;;4982709;28;20048;-88
2023/04/01 09:00:11;;;;;;;0.90;0.10;;;;;;;;;;4889358;29;20493;-87
2023/04/01 09:03:09;;;;;;;0.00;0.00;;;;;;;;;;4939320;29;20066;-87
2023/04/01 09:05:54;;;;;;;0.00;0.00;;;;;;;;;;4988794;28;20053;-87
2023/04/01 09:08:26;;;;;;;0.10;0.00;;;;;;;;;;5034022;28;20129;-88
2023/04/01 09:10:58;;;;;;;0.00;0.00;;;;;;;;;;5033646;28;20045;-87
2023/04/01 09:13:32;;;;;;;0.00;0.00;;;;;;;;;;5017130;28;20477;-87
2023/04/01 09:15:58;;;;;;;0.00;0.00;;;;;;;;;;5033975;28;20096;-87
2023/04/01 09:18:43;;;;;;;0.00;0.00;;;;;;;;;;5017170;28;20037;-87
2023/04/01 09:21:22;;;;;;;0.10;0.10;;;;;;;;;;5033468;28;20041;-86
2023/04/01 09:24:07;;;;;;;1.38;0.15;;;;;;;;;;5017268;28;20124;-88
2023/04/01 09:26:33;;;;;;;0.00;0.00;;;;;;;;;;5017176;28;20083;-87
2023/04/01 09:29:37;;;;;;;0.00;0.00;;;;;;;;;;5033306;28;20049;-87
2023/04/01 09:32:03;;;;;;;0.00;0.00;;;;;;;;;;4960863;28;20500;-87
2023/04/01 09:34:50;;;;;;;0.00;0.00;;;;;;;;;;4960379;28;20125;-87
2023/04/01 09:37:21;;;;;;;0.08;0.03;;;;;;;;;;4993726;28;20056;-88
2023/04/01 09:40:06;;;;;;;0.00;0.00;;;;;;;;;;5032931;28;20042;-87
2023/04/01 09:42:35;;;;;;;0.00;0.00;;;;;;;;;;5033343;28;20052;-88
2023/04/01 09:45:05;;;;;;;0.00;0.00;;;;;;;;;;5016621;28;20069;-87
2023/04/01 09:47:30;;;;;;;0.00;0.00;;;;;;;;;;5016998;28;20045;-88
2023/04/01 09:50:15;;;;;;;0.20;0.00;;;;;;;;;;5015637;28;20041;-87
2023/04/01 09:53:00;;;;;;;0.00;0.00;;;;;;;;;;5033062;28;20038;-88
2023/04/01 09:55:45;;;;;;;0.00;0.00;;;;;;;;;;5033010;28;20485;-88
2023/04/01 09:58:20;;;;;;;0.28;0.08;;;;;;;;;;5033148;28;20038;-87
2023/04/01 10:01:02;;;;;;;0.00;0.00;;;;;;;;;;5032707;28;20139;-88
2023/04/01 10:03:49;;;;;;;0.17;0.10;;;;;;;;;;5033064;28;20038;-87
2023/04/01 10:06:28;;;;;;;0.00;0.00;;;;;;;;;;5032962;28;20042;-88
2023/04/01 10:09:00;;;;;;;0.00;0.00;;;;;;;;;;5016121;28;20047;-88
2023/04/01 10:11:59;;;;;;;0.00;0.00;;;;;;;;;;5016258;28;20045;-88
2023/04/01 10:14:36;;;;;;;0.00;0.00;;;;;;;;;;5000365;28;20153;-88
2023/04/01 10:17:37;;;;;;;0.00;0.00;;;;;;;;;;5032984;28;20357;-87
2023/04/01 10:20:15;;;;;;;0.00;0.00;;;;;;;;;;4959787;28;20046;-88
2023/04/01 10:22:48;;;;;;;0.00;0.00;;;;;;;;;;5025137;28;20060;-87
2023/04/01 10:25:37;;;;;;;0.03;0.03;;;;;;;;;;5032333;28;20041;-87
2023/04/01 10:28:12;;;;;;;0.00;0.00;;;;;;;;;;5032478;28;20045;-87
2023/04/01 10:31:04;;;;;;;0.00;0.00;;;;;;;;;;5015671;28;20041;-88
2023/04/01 10:33:39;;;;;;;0.00;0.00;;;;;;;;;;5015989;28;20511;-88
2023/04/01 10:36:23;;;;;;;0.17;0.03;;;;;;;;;;5032327;28;20041;-88
2023/04/01 10:39:07;;;;;;;0.00;0.00;;;;;;;;;;5032045;28;20162;-88
2023/04/01 10:41:40;;;;;;;0.00;0.00;;;;;;;;;;5032243;28;20055;-87
2023/04/01 10:44:19;;;;;;;0.00;0.00;;;;;;;;;;5015123;28;20049;-88
2023/04/01 10:46:48;;;;;;;0.00;0.00;;;;;;;;;;5031783;28;20037;-91
2023/04/01 10:49:23;;;;;;;0.00;0.00;;;;;;;;;;5015337;28;20033;-87
2023/04/01 10:52:05;;;;;;;0.00;0.00;;;;;;;;;;5031775;28;20111;-87
2023/04/01 10:54:48;;;;;;;0.00;0.00;;;;;;;;;;5015027;28;20037;-87
2023/04/01 10:57:14;;;;;;;0.05;0.05;;;;;;;;;;5015548;28;20046;-87
2023/04/01 11:00:06;;;;;;;0.00;0.00;;;;;;;;;;5015407;28;20044;-86
2023/04/01 11:02:51;;;;;;;0.00;0.00;;;;;;;;;;5030991;28;20050;-88
2023/04/01 11:05:23;;;;;;;0.00;0.00;;;;;;;;;;5031506;28;20053;-87
2023/04/01 11:07:52;;;;;;;0.00;0.00;;;;;;;;;;5015191;28;20041;-87
2023/04/01 11:10:27;;;;;;;0.00;0.00;;;;;;;;;;5014936;28;20339;-88
2023/04/01 11:13:11;;;;;;;0.00;0.00;;;;;;;;;;5014921;28;20119;-87
2023/04/01 11:15:49;;;;;;;0.30;0.15;;;;;;;;;;5014880;28;20460;-88
2023/04/01 11:18:34;;;;;;;0.00;0.00;;;;;;;;;;5031475;28;20467;-87
2023/04/01 11:21:03;;;;;;;0.00;0.00;;;;;;;;;;5031175;28;20041;-87
2023/04/01 11:23:36;;;;;;;0.00;0.00;;;;;;;;;;5031197;28;20043;-87
2023/04/01 11:26:08;;;;;;;0.00;0.00;;;;;;;;;;5031263;28;20041;-87
2023/04/01 11:28:44;;;;;;;0.00;0.00;;;;;;;;;;5031255;28;20048;-87
2023/04/01 11:31:16;;;;;;;0.00;0.00;;;;;;;;;;5030798;28;20041;-87
2023/04/01 11:33:53;;;;;;;0.00;0.00;;;;;;;;;;5030946;28;20049;-87
2023/04/01 11:36:26;;;;;;;0.00;0.00;;;;;;;;;;5030915;28;20117;-87
2023/04/01 11:39:03;;;;;;;0.00;0.00;;;;;;;;;;5014621;28;20076;-87
2023/04/01 11:41:41;;;;;;;0.00;0.00;;;;;;;;;;5031164;28;20045;-88
2023/04/01 11:44:20;;;;;;;0.00;0.00;;;;;;;;;;5014866;28;20148;-88
2023/04/01 11:46:49;;;;;;;0.00;0.00;;;;;;;;;;5030994;28;20543;-87
2023/04/01 11:49:15;;;;;;;0.00;0.00;;;;;;;;;;5014657;28;20052;-87
2023/04/01 11:51:53;;;;;;;0.00;0.00;;;;;;;;;;5014382;28;20046;-87
2023/04/01 11:54:39;;;;;;;0.00;0.00;;;;;;;;;;5014654;28;20088;-89
2023/04/01 11:57:05;;;;;;;;;;;;;;;;;;5014946;28;20096;-88
2023/04/01 11:59:46;;;;;;;0.00;0.00;;;;;;;;;;5030510;28;19920;-87
2023/04/01 12:02:19;;;;;;;0.00;0.00;;;;;;;;;;5030609;28;20092;-88
2023/04/01 12:04:58;;;;;;;0.17;0.05;;;;;;;;;;5014236;28;20462;-88
2023/04/01 12:07:32;;;;;;;0.00;0.00;;;;;;;;;;5030724;28;20048;-87
2023/04/01 12:10:17;;;;;;;0.00;0.00;;;;;;;;;;5030773;28;20046;-87
2023/04/01 12:12:57;;;;;;;0.00;0.00;;;;;;;;;;5015162;28;20456;-87
2023/04/01 12:15:26;;;;;;;0.00;0.00;;;;;;;;;;5034632;28;20096;-88
2023/04/01 12:17:55;;;;;;;0.00;0.00;;;;;;;;;;5018224;28;20033;-88
2023/04/01 12:20:27;;;;;;;0.00;0.00;;;;;;;;;;5034707;28;20095;-88
2023/04/01 12:22:56;;;;;;;0.00;0.00;;;;;;;;;;5018487;28;20583;-88
2023/04/01 12:25:25;;;;;;;0.00;0.00;;;;;;;;;;5017832;28;20042;-88
2023/04/01 12:28:02;;;;;;;0.00;0.00;;;;;;;;;;5018434;28;20132;-88
2023/04/01 12:31:03;;;;;;;0.00;0.00;;;;;;;;;;5018246;28;20099;-87
2023/04/01 12:33:32;;;;;;;0.00;0.00;;;;;;;;;;4961942;28;20081;-88
2023/04/01 12:36:08;;;;;;;0.00;0.00;;;;;;;;;;5023412;28;20052;-88
2023/04/01 12:38:53;;;;;;;0.00;0.00;;;;;;;;;;5034362;28;20400;-88
2023/04/01 12:41:28;;;;;;;0.00;0.00;;;;;;;;;;5019004;28;20092;-89
2023/04/01 12:44:06;;;;;;;0.00;0.00;;;;;;;;;;5018505;28;20120;-89
2023/04/01 12:46:35;;;;;;;0.40;0.20;;;;;;;;;;5017959;28;20041;-89
2023/04/01 12:49:11;;;;;;;0.28;0.28;;;;;;;;;;5034429;28;20045;-88
2023/04/01 12:51:46;;;;;;;0.00;0.00;;;;;;;;;;5017521;28;20137;-89
2023/04/01 12:54:30;;;;;;;0.00;0.00;;;;;;;;;;5017872;28;20484;-88
2023/04/01 12:56:59;;;;;;;0.00;0.00;;;;;;;;;;5017795;28;20551;-89
2023/04/01 12:59:34;;;;;;;0.00;0.00;;;;;;;;;;5034145;28;20080;-88
2023/04/01 13:02:13;;;;;;;0.00;0.00;;;;;;;;;;5033640;28;20057;-88
2023/04/01 13:04:52;;;;;;;0.00;0.00;;;;;;;;;;5017620;28;20504;-87
2023/04/01 13:07:33;;;;;;;0.25;0.10;;;;;;;;;;5017518;28;20044;-89
2023/04/01 13:10:05;;;;;;;0.00;0.00;;;;;;;;;;5034257;28;20033;-89
2023/04/01 13:12:31;;;;;;;0.00;0.00;;;;;;;;;;5033634;28;20077;-89
2023/04/01 13:14:57;;;;;;;0.00;0.00;;;;;;;;;;5018242;28;20099;-89
2023/04/01 13:17:26;;;;;;;0.00;0.00;;;;;;;;;;5034563;28;20042;-87
2023/04/01 13:19:59;;;;;;;0.20;0.10;;;;;;;;;;5017912;28;20099;-88
2023/04/01 13:22:25;;;;;;;0.00;0.00;;;;;;;;;;5017178;28;20045;-88
2023/04/01 13:25:02;;;;;;;0.00;0.00;;;;;;;;;;5016103;28;20429;-89
2023/04/01 13:27:35;;;;;;;0.00;0.00;;;;;;;;;;5017247;28;20516;-88
2023/04/01 13:30:17;;;;;;;0.00;0.00;;;;;;;;;;5017118;28;20048;-88
2023/04/01 13:32:59;;;;;;;0.00;0.00;;;;;;;;;;5033413;28;20048;-89
2023/04/01 13:35:35;;;;;;;0.00;0.00;;;;;;;;;;5033540;28;20037;-89
2023/04/01 13:38:13;;;;;;;0.08;0.08;;;;;;;;;;5017409;28;20474;-88
2023/04/01 13:40:49;;;;;;;0.00;0.00;;;;;;;;;;5017105;28;20041;-89
2023/04/01 13:43:29;;;;;;;0.00;0.00;;;;;;;;;;5033192;28;20084;-89
2023/04/01 13:46:01;;;;;;;0.00;0.00;;;;;;;;;;5033308;28;20136;-88
2023/04/01 13:48:34;;;;;;;0.00;0.00;;;;;;;;;;5033610;28;20041;-89
2023/04/01 13:51:06;;;;;;;0.00;0.00;;;;;;;;;;5016384;28;20045;-88
2023/04/01 13:53:41;;;;;;;0.25;0.13;;;;;;;;;;5016891;28;20489;-90
2023/04/01 13:56:26;;;;;;;0.00;0.00;;;;;;;;;;5016875;28;20041;-90
2023/04/01 13:59:04;;;;;;;0.00;0.00;;;;;;;;;;5033581;28;20056;-89
2023/04/01 14:01:33;;;;;;;0.00;0.00;;;;;;;;;;5032541;28;20182;-90
2023/04/01 14:04:08;;;;;;;0.00;0.00;;;;;;;;;;5032828;28;20064;-89
2023/04/01 14:06:40;;;;;;;0.00;0.00;;;;;;;;;;5033225;28;20120;-92
2023/04/01 14:09:18;;;;;;;0.00;0.00;;;;;;;;;;5017742;28;20045;-92
2023/04/01 14:11:53;;;;;;;0.00;0.00;;;;;;;;;;5016011;28;20501;-89
2023/04/01 14:14:27;;;;;;;0.10;0.03;;;;;;;;;;5016857;28;20041;-91
2023/04/01 14:17:11;;;;;;;0.00;0.00;;;;;;;;;;5016412;28;20071;-90
2023/04/01 14:19:49;;;;;;;0.00;0.00;;;;;;;;;;5016716;28;20060;-89
2023/04/01 14:22:28;;;;;;;0.00;0.00;;;;;;;;;;5016432;28;20052;-89
2023/04/01 14:25:13;;;;;;;0.00;0.00;;;;;;;;;;5017011;28;20526;-90
2023/04/01 14:27:39;;;;;;;0.00;0.00;;;;;;;;;;5016738;28;20045;-90
2023/04/01 14:30:15;;;;;;;0.00;0.00;;;;;;;;;;5033870;28;20037;-88
2023/04/01 14:32:48;;;;;;;0.08;0.00;;;;;;;;;;5016099;28;20053;-90
2023/04/01 14:35:20;;;;;;;0.00;0.00;;;;;;;;;;5016473;28;20436;-90
2023/04/01 14:37:55;;;;;;;0.00;0.00;;;;;;;;;;5016562;28;20041;-90
2023/04/01 14:40:28;;;;;;;0.00;0.00;;;;;;;;;;5016525;28;20044;-90
2023/04/01 14:43:06;;;;;;;0.00;0.00;;;;;;;;;;5032770;28;20057;-90
2023/04/01 14:45:46;;;;;;;0.00;0.00;;;;;;;;;;5032912;28;20045;-91
2023/04/01 14:48:30;;;;;;;0.00;0.00;;;;;;;;;;5016410;28;20366;-88
2023/04/01 14:51:03;;;;;;;0.00;0.00;;;;;;;;;;5032807;28;20450;-89
2023/04/01 14:53:38;;;;;;;0.00;0.00;;;;;;;;;;5032155;28;20385;-89
2023/04/01 14:56:04;;;;;;;0.00;0.00;;;;;;;;;;5032422;28;20041;-89
2023/04/01 14:58:47;;;;;;;0.38;0.10;;;;;;;;;;5015979;28;20453;-88
2023/04/01 15:01:16;;;;;;;0.00;0.00;;;;;;;;;;5015584;28;20057;-88
2023/04/01 15:03:52;;;;;;;0.00;0.00;;;;;;;;;;5015865;28;20404;-88
2023/04/01 15:06:37;;;;;;;0.00;0.00;;;;;;;;;;5015843;28;20392;-89
2023/04/01 15:09:03;;;;;;;0.00;0.00;;;;;;;;;;5032164;28;20076;-90
2023/04/01 15:11:35;;;;;;;0.00;0.00;;;;;;;;;;5015917;28;20084;-88
2023/04/01 15:14:01;;;;;;;0.00;0.00;;;;;;;;;;5015800;28;20421;-90
2023/04/01 15:16:36;;;;;;;0.00;0.00;;;;;;;;;;5015799;28;20049;-88